Time;durP1;ratioP1;P1;durP2;ratioP2;P2;SDS_P1;SDS_P2;PMS_P1;PMS_P2;Temp;Humidity;BMP_temperature;BMP_pressure;BME280_temperature;BME280_humidity;BME280_pressure;Samples;Min_cycle;Max_cycle;Signal;HPM_P1;HPM_P2
2022/05/09 00:01:11;;;;;;;9.25;3.35;;;;;;;10.22;71.25;102923.28;5066531;28;20095;-66
2022/05/09 00:03:37;;;;;;;14.43;3.40;;;;;;;10.17;71.10;102922.41;5067719;28;21472;-65
2022/05/09 00:06:02;;;;;;;11.95;3.10;;;;;;;10.17;71.08;102914.50;5065325;28;20036;-65
2022/05/09 00:08:27;;;;;;;14.32;3.53;;;;;;;10.15;71.46;102914.50;5067851;28;20493;-65
2022/05/09 00:10:53;;;;;;;12.80;3.53;;;;;;;10.04;71.45;102914.47;5067614;28;20039;-66
2022/05/09 00:13:18;;;;;;;10.13;3.15;;;;;;;10.01;71.79;102918.84;5066752;28;20028;-65
2022/05/09 00:15:43;;;;;;;11.40;2.95;;;;;;;9.99;71.78;102916.22;5066862;28;20024;-66
2022/05/09 00:18:08;;;;;;;18.30;3.35;;;;;;;9.97;71.96;102924.09;5067485;28;20032;-66
2022/05/09 00:20:34;;;;;;;15.50;2.88;;;;;;;9.94;71.98;102918.81;5066500;28;20360;-66
2022/05/09 00:22:59;;;;;;;11.57;3.10;;;;;;;9.93;71.95;102921.50;5068582;28;20395;-66
2022/05/09 00:25:26;;;;;;;11.23;2.75;;;;;;;9.85;72.04;102918.81;5067268;28;20047;-65
2022/05/09 00:27:52;;;;;;;15.35;3.40;;;;;;;9.85;72.18;102913.56;5066716;28;20304;-66
2022/05/09 00:30:17;;;;;;;11.93;3.10;;;;;;;9.76;72.50;102914.41;5066221;28;20064;-66
2022/05/09 00:32:43;;;;;;;12.65;3.05;;;;;;;9.77;72.67;102904.75;5066777;28;20032;-65
2022/05/09 00:35:09;;;;;;;13.25;3.35;;;;;;;9.70;72.93;102901.22;5066430;28;20421;-65
2022/05/09 00:37:36;;;;;;;14.38;3.30;;;;;;;9.64;73.25;102907.34;5066083;28;20050;-66
2022/05/09 00:40:01;;;;;;;15.00;3.25;;;;;;;9.63;73.28;102902.09;5066497;28;20017;-64
2022/05/09 00:42:27;;;;;;;14.88;3.72;;;;;;;9.57;73.61;102898.53;5066239;28;20162;-66
2022/05/09 00:44:52;;;;;;;16.30;3.45;;;;;;;9.63;73.23;102897.69;5067120;28;20024;-65
2022/05/09 00:47:20;;;;;;;16.60;6.13;;;;;;;9.65;73.43;102890.69;5066017;28;20035;-63
2022/05/09 00:49:49;;;;;;;14.40;3.35;;;;;;;9.63;73.16;102897.69;5067238;28;20056;-67
2022/05/09 00:52:31;;;;;;;10.13;3.20;;;;;;;9.57;73.41;102900.31;5065460;28;20024;-65
2022/05/09 00:55:13;;;;;;;16.35;3.40;;;;;;;9.50;73.79;102901.16;5067421;28;20123;-65
2022/05/09 00:57:46;;;;;;;14.20;3.58;;;;;;;9.37;74.12;102898.47;5064141;28;20025;-66
2022/05/09 01:00:14;;;;;;;12.32;3.70;;;;;;;9.42;73.73;102898.50;5066467;28;20025;-66
2022/05/09 01:02:44;;;;;;;15.75;3.95;;;;;;;9.45;73.80;102894.13;5064574;28;20495;-64
2022/05/09 01:05:12;;;;;;;12.73;3.38;;;;;;;9.43;73.96;102889.72;5064935;28;20052;-66
2022/05/09 01:07:38;;;;;;;16.50;3.92;;;;;;;9.34;74.15;102886.16;5076360;22;20036;-65
2022/05/09 01:10:04;;;;;;;11.52;2.97;;;;;;;9.32;74.44;102887.94;5064163;28;20102;-65
2022/05/09 01:12:31;;;;;;;8.15;3.00;;;;;;;9.29;74.52;102890.56;5065867;28;20036;-66
2022/05/09 01:15:00;;;;;;;8.55;2.95;;;;;;;9.24;74.73;102884.38;5066215;28;20048;-65
2022/05/09 01:17:26;;;;;;;20.95;4.10;;;;;;;9.23;74.60;102880.00;5065292;28;20086;-65
2022/05/09 01:19:54;;;;;;;9.98;3.22;;;;;;;9.20;74.80;102879.97;5067312;28;20028;-66
2022/05/09 01:22:26;;;;;;;14.35;3.50;;;;;;;9.15;74.94;102877.31;5065424;28;20025;-66
2022/05/09 01:24:53;;;;;;;9.52;3.10;;;;;;;9.13;75.11;102883.44;5066235;28;20082;-67
2022/05/09 01:27:19;;;;;;;10.77;3.08;;;;;;;9.10;75.23;102876.44;5066042;28;20062;-66
2022/05/09 01:29:47;;;;;;;10.93;3.15;;;;;;;9.13;74.97;102876.47;5065806;28;20052;-65
2022/05/09 01:32:15;;;;;;;24.67;3.60;;;;;;;9.11;74.88;102872.94;5066232;28;20028;-64
2022/05/09 01:34:49;;;;;;;14.50;3.60;;;;;;;9.09;75.14;102872.91;5066707;28;20021;-65
2022/05/09 01:37:14;;;;;;;15.32;4.45;;;;;;;9.08;75.03;102873.78;5065014;28;20029;-66
2022/05/09 01:39:39;;;;;;;12.25;3.30;;;;;;;9.10;74.63;102869.41;5064077;28;20023;-65
2022/05/09 01:42:07;;;;;;;16.75;3.65;;;;;;;9.07;74.99;102869.41;5065823;28;20024;-66
2022/05/09 01:44:34;;;;;;;14.02;3.85;;;;;;;9.01;74.83;102860.59;5064495;28;20032;-64
2022/05/09 01:49:43;;;;;;;19.23;4.22;;;;;;;8.93;75.40;102857.91;5066246;28;20402;-65
2022/05/09 01:52:10;;;;;;;7.13;2.78;;;;;;;8.97;75.40;102859.69;5065150;28;20036;-65
2022/05/09 01:54:36;;;;;;;12.52;3.78;;;;;;;8.92;75.74;102856.16;5070720;28;20032;-66
2022/05/09 01:57:02;;;;;;;14.10;4.45;;;;;;;8.93;75.59;102853.56;5069381;28;20028;-63
2022/05/09 01:59:29;;;;;;;12.35;4.05;;;;;;;8.92;75.39;102858.81;5069362;28;20393;-65
2022/05/09 02:01:56;;;;;;;11.38;4.05;;;;;;;8.88;75.48;102854.41;5069314;28;20107;-67
2022/05/09 02:04:23;;;;;;;15.35;3.85;;;;;;;8.84;75.77;102859.66;5067501;28;20037;-66
2022/05/09 02:06:49;;;;;;;14.23;4.32;;;;;;;8.81;75.71;102843.84;5069682;28;20021;-66
2022/05/09 02:09:14;;;;;;;15.75;4.40;;;;;;;8.77;75.98;102847.34;5070021;28;20037;-66
2022/05/09 02:11:39;;;;;;;13.32;3.80;;;;;;;8.79;75.97;102842.09;5069070;28;20709;-65
2022/05/09 02:14:05;;;;;;;17.70;4.47;;;;;;;8.77;75.82;102841.19;5067246;28;20017;-64
2022/05/09 02:16:31;;;;;;;20.30;4.65;;;;;;;8.80;75.45;102843.84;5069359;28;20221;-64
2022/05/09 02:18:57;;;;;;;12.38;3.83;;;;;;;8.83;75.32;102849.13;5068871;28;20052;-66
2022/05/09 02:21:22;;;;;;;10.43;3.60;;;;;;;8.77;75.71;102851.69;5068947;28;20123;-65
2022/05/09 02:23:47;;;;;;;12.35;4.25;;;;;;;8.76;75.68;102849.94;5069026;28;20013;-66
2022/05/09 02:26:13;;;;;;;16.48;4.97;;;;;;;8.73;75.90;102845.53;5069518;28;20036;-66
2022/05/09 02:28:38;;;;;;;23.42;5.88;;;;;;;8.71;76.09;102848.19;5069146;28;20048;-66
2022/05/09 02:31:04;;;;;;;17.92;5.07;;;;;;;8.67;76.05;102849.00;5069234;28;20033;-64
2022/05/09 02:33:29;;;;;;;8.43;4.80;;;;;;;8.67;76.08;102850.78;5068443;28;20024;-66
2022/05/09 02:35:54;;;;;;;12.23;4.65;;;;;;;8.65;76.20;102855.13;5069349;28;20067;-66
2022/05/09 02:38:21;;;;;;;17.35;5.57;;;;;;;8.62;75.87;102849.84;5067821;28;20458;-65
2022/05/09 02:40:46;;;;;;;19.20;5.50;;;;;;;8.64;75.98;102850.75;5069756;28;20059;-63
2022/05/09 02:43:11;;;;;;;21.83;7.07;;;;;;;8.63;75.87;102846.34;5067898;28;20028;-66
2022/05/09 02:45:38;;;;;;;20.25;6.10;;;;;;;8.56;76.07;102848.06;5069670;28;20036;-65
2022/05/09 02:48:04;;;;;;;16.25;5.53;;;;;;;8.56;75.94;102858.59;5068623;28;20024;-66
2022/05/09 02:50:30;;;;;;;18.98;6.07;;;;;;;8.45;76.15;102853.19;5069964;28;20048;-66
2022/05/09 02:52:56;;;;;;;24.88;6.50;;;;;;;8.43;76.88;102850.56;5068472;28;20032;-65
2022/05/09 02:55:22;;;;;;;20.48;7.38;;;;;;;8.43;76.88;102842.69;5069580;28;20716;-65
2022/05/09 02:57:48;;;;;;;21.75;5.72;;;;;;;8.37;76.95;102844.41;5063192;28;20375;-66
2022/05/09 03:00:18;;;;;;;19.08;6.22;;;;;;;8.34;76.99;102832.13;5048778;28;20029;-66
2022/05/09 03:04:38;;;;;;;16.70;6.03;;;;;;;8.28;77.22;102832.94;5048057;28;20029;-64
2022/05/09 03:05:29;;;;;;;17.52;5.53;;;;;;;8.30;77.08;102827.69;5049708;28;20043;-66
2022/05/09 03:07:55;;;;;;;20.65;5.85;;;;;;;8.29;77.38;102829.47;5049013;28;20058;-65
2022/05/09 03:10:20;;;;;;;15.70;6.63;;;;;;;8.27;77.36;102825.03;5049395;28;20361;-66
2022/05/09 03:12:46;;;;;;;15.18;6.10;;;;;;;8.27;77.16;102830.28;5060581;28;20466;-66
2022/05/09 03:15:11;;;;;;;15.98;5.80;;;;;;;8.25;77.39;102827.66;5069143;28;20033;-66
2022/05/09 03:17:36;;;;;;;17.85;5.30;;;;;;;8.27;77.07;102828.56;5085010;28;20043;-65
2022/05/09 03:20:03;;;;;;;15.88;5.70;;;;;;;8.26;77.17;102823.28;5069103;28;20078;-64
2022/05/09 03:22:29;;;;;;;16.98;4.90;;;;;;;8.20;77.30;102822.41;5069111;28;20107;-65
2022/05/09 03:24:54;;;;;;;14.23;5.97;;;;;;;8.18;77.33;102821.50;5066260;28;20038;-65
2022/05/09 03:27:19;;;;;;;16.63;5.45;;;;;;;8.20;77.21;102818.88;5067258;28;20086;-65
2022/05/09 03:29:45;;;;;;;20.23;6.25;;;;;;;8.21;77.27;102816.25;5068886;28;20031;-65
2022/05/09 03:32:11;;;;;;;13.35;5.95;;;;;;;8.17;77.49;102809.22;5067420;28;20060;-66
2022/05/09 03:34:36;;;;;;;14.13;4.78;;;;;;;8.07;77.73;102805.63;5067863;28;20055;-66
2022/05/09 03:37:01;;;;;;;14.48;4.95;;;;;;;8.10;77.48;102807.44;5067458;28;20033;-63
2022/05/09 03:39:27;;;;;;;20.02;6.28;;;;;;;8.04;78.01;102808.22;5069287;28;20029;-66
2022/05/09 03:41:52;;;;;;;17.60;5.72;;;;;;;7.98;77.99;102802.94;5067910;28;20563;-66
2022/05/09 03:44:18;;;;;;;15.98;5.32;;;;;;;7.95;78.11;102808.19;5067044;28;20033;-65
2022/05/09 03:46:43;;;;;;;16.38;5.72;;;;;;;7.92;78.31;102816.03;5068568;28;20020;-65
2022/05/09 03:49:10;;;;;;;17.52;4.82;;;;;;;7.92;78.13;102808.16;5066791;28;20036;-65
2022/05/09 03:51:36;;;;;;;19.65;6.53;;;;;;;7.88;78.35;102803.72;5066278;28;20056;-65
2022/05/09 03:54:01;;;;;;;14.93;4.60;;;;;;;7.87;78.39;102809.84;5068814;28;20059;-66
2022/05/09 03:56:26;;;;;;;18.52;5.75;;;;;;;7.86;78.57;102808.97;5069391;28;20035;-67
2022/05/09 03:58:52;;;;;;;17.60;4.97;;;;;;;7.82;78.80;102807.16;5066979;28;20028;-67
2022/05/09 04:01:17;;;;;;;16.48;4.75;;;;;;;7.88;78.44;102801.09;5067795;28;20386;-64
2022/05/09 04:03:42;;;;;;;24.95;5.82;;;;;;;7.84;78.80;102802.81;5066406;28;20021;-65
2022/05/09 04:06:08;;;;;;;19.15;5.13;;;;;;;7.84;79.12;102800.19;5066819;28;20060;-66
2022/05/09 04:08:34;;;;;;;15.05;5.07;;;;;;;7.86;79.06;102800.22;5067136;28;20083;-65
2022/05/09 04:10:59;;;;;;;22.67;5.75;;;;;;;7.87;79.23;102791.47;5067229;28;20389;-65
2022/05/09 04:13:24;;;;;;;18.58;4.78;;;;;;;7.88;79.05;102787.97;5068036;28;20142;-66
2022/05/09 04:18:41;;;;;;;17.88;4.80;;;;;;;7.91;78.82;102791.50;5066717;28;20547;-65
2022/05/09 04:21:08;;;;;;;15.15;4.85;;;;;;;7.98;78.71;102787.19;5067790;28;20033;-66
2022/05/09 04:23:33;;;;;;;20.83;4.88;;;;;;;7.95;78.87;102787.19;5067106;28;20033;-67
2022/05/09 04:25:59;;;;;;;20.45;4.50;;;;;;;7.95;78.81;102788.03;5068205;28;20090;-65
2022/05/09 04:28:24;;;;;;;13.00;4.90;;;;;;;8.01;78.82;102787.19;5067430;28;20027;-67
2022/05/09 04:30:50;;;;;;;14.65;4.22;;;;;;;8.07;78.72;102789.88;5067606;28;20530;-65
2022/05/09 04:33:15;;;;;;;14.85;4.97;;;;;;;8.17;78.27;102788.22;5065133;28;20040;-66
2022/05/09 04:35:42;;;;;;;10.43;4.63;;;;;;;8.17;78.39;102788.22;5059946;28;20032;-67
2022/05/09 04:38:13;;;;;;;16.63;4.40;;;;;;;8.21;78.38;102786.47;5049632;28;20071;-65
2022/05/09 04:40:38;;;;;;;16.70;5.05;;;;;;;8.30;78.06;102783.94;5047022;28;20028;-64
2022/05/09 04:43:04;;;;;;;17.88;5.43;;;;;;;8.32;77.70;102784.84;5045931;28;20028;-67
2022/05/09 04:45:31;;;;;;;15.45;4.70;;;;;;;8.37;77.64;102786.59;5052965;28;20395;-68
2022/05/09 04:47:56;;;;;;;12.40;4.68;;;;;;;8.39;77.89;102788.38;5057184;28;20057;-70
2022/05/09 04:50:24;;;;;;;16.52;4.38;;;;;;;8.39;77.77;102780.50;5055412;28;20033;-69
2022/05/09 04:52:49;;;;;;;18.17;5.45;;;;;;;8.33;77.81;102783.97;5049858;28;20025;-69
2022/05/09 04:55:15;;;;;;;12.73;5.30;;;;;;;8.39;77.79;102782.22;5046639;28;20025;-66
2022/05/09 04:57:42;;;;;;;14.70;4.75;;;;;;;8.47;77.66;102772.66;5055146;28;20472;-69
2022/05/09 05:00:10;;;;;;;17.33;4.78;;;;;;;8.57;77.32;102771.88;5045604;28;20021;-67
2022/05/09 05:02:36;;;;;;;14.73;5.05;;;;;;;8.70;76.86;102772.81;5045203;28;20046;-68
2022/05/09 05:05:03;;;;;;;14.70;4.80;;;;;;;8.71;76.96;102773.69;5046418;28;20021;-68
2022/05/09 05:07:28;;;;;;;16.48;4.90;;;;;;;8.85;76.72;102779.91;5045900;28;20048;-67
2022/05/09 05:09:53;;;;;;;10.57;4.68;;;;;;;8.85;76.75;102777.25;5046944;28;20495;-69
2022/05/09 05:12:19;;;;;;;20.25;4.47;;;;;;;8.98;76.29;102782.59;5046150;28;20028;-69
2022/05/09 05:14:44;;;;;;;17.85;4.75;;;;;;;9.06;76.00;102787.88;5050934;28;20401;-69
2022/05/09 05:17:10;;;;;;;10.82;4.00;;;;;;;9.13;75.53;102775.63;5065834;28;20085;-69
2022/05/09 05:19:38;;;;;;;20.80;5.80;;;;;;;9.17;75.49;102783.53;5065653;28;20107;-69
2022/05/09 05:22:04;;;;;;;23.73;6.40;;;;;;;9.30;75.44;102779.19;5065455;28;20100;-68
2022/05/09 05:24:34;;;;;;;11.05;4.78;;;;;;;9.46;74.56;102776.59;5065597;28;20459;-69
2022/05/09 05:26:59;;;;;;;;;;;;;;;9.52;74.64;102773.97;5066994;28;20027;-67
2022/05/09 05:29:24;;;;;;;17.55;4.55;;;;;;;9.57;74.36;102772.22;5065130;28;19917;-61
2022/05/09 05:31:50;;;;;;;20.58;4.50;;;;;;;9.64;74.77;102769.59;5048397;28;20041;-60
2022/05/09 05:34:15;;;;;;;9.88;3.47;;;;;;;9.81;74.36;102767.00;5045054;28;20151;-60
2022/05/09 05:36:41;;;;;;;8.00;3.50;;;;;;;9.97;74.32;102773.13;5045149;28;20115;-62
2022/05/09 05:39:08;;;;;;;15.77;4.53;;;;;;;9.97;73.30;102767.88;5046371;28;20013;-64
2022/05/09 05:41:33;;;;;;;16.33;4.60;;;;;;;10.01;73.91;102761.72;5045324;28;20063;-64
2022/05/09 05:43:59;;;;;;;21.30;4.63;;;;;;;10.07;73.39;102768.72;5061746;28;20530;-64
2022/05/09 05:46:25;;;;;;;14.85;4.53;;;;;;;10.20;72.91;102773.09;5065743;28;20070;-65
2022/05/09 05:48:50;;;;;;;12.13;4.30;;;;;;;10.28;72.95;102774.84;5065531;28;20039;-65
2022/05/09 05:51:18;;;;;;;18.35;4.68;;;;;;;10.33;72.68;102765.19;5066151;28;20107;-65
2022/05/09 05:53:44;;;;;;;12.02;3.85;;;;;;;10.45;72.44;102775.72;5066286;28;20128;-66
2022/05/09 05:56:09;;;;;;;12.27;3.40;;;;;;;10.62;71.94;102777.44;5065613;28;20483;-65
2022/05/09 05:58:35;;;;;;;16.38;4.50;;;;;;;10.74;70.89;102771.25;5062255;28;20036;-64
2022/05/09 06:01:00;;;;;;;16.70;4.15;;;;;;;10.86;70.69;102771.22;5065682;28;20012;-64
2022/05/09 06:03:25;;;;;;;12.52;4.80;;;;;;;11.04;69.85;102773.75;5065068;28;20104;-64
2022/05/09 06:05:51;;;;;;;13.93;4.85;;;;;;;11.09;69.08;102775.50;5066001;28;20024;-67
2022/05/09 06:08:16;;;;;;;13.68;3.72;;;;;;;11.18;68.79;102777.22;5065807;28;20048;-65
2022/05/09 06:10:42;;;;;;;15.40;4.18;;;;;;;11.30;68.53;102778.91;5065021;28;20490;-64
2022/05/09 06:13:07;;;;;;;15.93;4.30;;;;;;;11.41;67.51;102775.34;5064702;28;20040;-66
2022/05/09 06:15:34;;;;;;;14.32;3.97;;;;;;;11.52;66.99;102781.41;5065249;28;20244;-65
2022/05/09 06:18:08;;;;;;;17.50;3.95;;;;;;;11.48;65.82;102771.75;5064957;28;20024;-65
2022/05/09 06:20:37;;;;;;;13.20;3.55;;;;;;;11.55;65.16;102778.75;5064968;28;20108;-65
2022/05/09 06:23:03;;;;;;;12.50;4.20;;;;;;;11.61;64.43;102770.78;5065537;28;20133;-66
2022/05/09 06:25:30;;;;;;;16.70;4.47;;;;;;;11.68;64.53;102779.53;5059226;28;20049;-64
2022/05/09 06:27:58;;;;;;;15.05;3.95;;;;;;;11.92;64.30;102784.66;5043794;28;20025;-65
2022/05/09 06:30:24;;;;;;;11.80;4.07;;;;;;;11.99;63.82;102783.72;5044252;28;20382;-63
2022/05/09 06:32:49;;;;;;;16.15;4.47;;;;;;;12.02;63.98;102778.41;5054459;28;20017;-66
2022/05/09 06:35:20;;;;;;;14.50;3.65;;;;;;;12.23;63.46;102781.75;5065257;28;20094;-66
2022/05/09 06:37:50;;;;;;;13.25;3.88;;;;;;;12.28;63.54;102779.94;5065834;28;20108;-65
2022/05/09 06:40:17;;;;;;;10.45;3.53;;;;;;;12.46;62.82;102778.03;5066605;28;20332;-67
2022/05/09 06:42:42;;;;;;;14.20;3.63;;;;;;;12.56;62.93;102781.44;5055378;28;20024;-66
2022/05/09 06:45:08;;;;;;;10.85;4.20;;;;;;;12.66;62.39;102782.19;5057369;28;20032;-67
2022/05/09 06:47:34;;;;;;;14.00;4.05;;;;;;;12.76;62.69;102776.78;5066243;28;20027;-65
2022/05/09 06:50:00;;;;;;;15.52;4.47;;;;;;;12.77;61.14;102782.97;5069823;28;20020;-66
2022/05/09 06:52:26;;;;;;;18.17;4.65;;;;;;;12.87;61.70;102779.31;5069088;28;20448;-66
2022/05/09 06:54:51;;;;;;;8.57;4.30;;;;;;;12.95;60.71;102783.63;5045311;28;20028;-64
2022/05/09 06:57:16;;;;;;;12.52;4.20;;;;;;;13.11;61.31;102779.88;5044052;28;20442;-68
2022/05/09 06:59:42;;;;;;;12.00;3.97;;;;;;;13.23;60.75;102777.94;5043652;28;20052;-65
2022/05/09 07:02:12;;;;;;;11.63;4.53;;;;;;;13.27;60.32;102782.28;5028628;28;20098;-65
2022/05/09 07:04:37;;;;;;;14.80;4.43;;;;;;;13.36;60.43;102782.16;5028255;28;20029;-66
2022/05/09 07:07:03;;;;;;;14.38;4.00;;;;;;;13.48;60.36;102780.22;5031557;28;20411;-66
2022/05/09 07:09:28;;;;;;;18.83;4.68;;;;;;;13.46;59.16;102774.94;5048050;28;20433;-65
2022/05/09 07:11:54;;;;;;;22.27;4.32;;;;;;;13.56;58.76;102775.75;5045203;28;20024;-66
2022/05/09 07:14:20;;;;;;;15.07;4.38;;;;;;;13.58;58.22;102779.22;5028721;28;20032;-66
2022/05/09 07:16:45;;;;;;;17.40;4.25;;;;;;;13.71;58.43;102782.56;5028364;28;20025;-66
2022/05/09 07:19:11;;;;;;;25.42;4.85;;;;;;;13.72;58.67;102778.13;5028473;28;20028;-65
2022/05/09 07:21:36;;;;;;;13.15;4.38;;;;;;;13.86;57.92;102781.44;5035457;28;20027;-67
2022/05/09 07:24:01;;;;;;;15.55;4.07;;;;;;;13.93;57.67;102781.34;5048028;28;20081;-66
2022/05/09 07:26:27;;;;;;;11.57;4.03;;;;;;;14.05;57.34;102778.47;5044034;28;20044;-65
2022/05/09 07:28:52;;;;;;;16.15;4.30;;;;;;;14.18;57.47;102771.16;5027823;28;20013;-67
2022/05/09 07:31:18;;;;;;;12.35;4.40;;;;;;;14.32;57.15;102773.56;5034142;28;20115;-66
2022/05/09 07:33:44;;;;;;;13.57;4.53;;;;;;;14.51;57.58;102773.22;5046878;28;20020;-67
2022/05/09 07:36:09;;;;;;;13.00;4.18;;;;;;;14.57;57.14;102766.94;5045378;28;20071;-66
2022/05/09 07:38:35;;;;;;;15.75;3.78;;;;;;;14.68;57.13;102769.34;5046931;28;20032;-67
2022/05/09 07:41:00;;;;;;;11.93;4.72;;;;;;;14.72;56.47;102773.69;5046893;28;20017;-67
2022/05/09 07:43:28;;;;;;;12.02;4.90;;;;;;;14.83;56.52;102769.06;5040500;28;20040;-67
2022/05/09 07:45:55;;;;;;;16.98;5.03;;;;;;;14.90;55.65;102764.53;5046565;28;20386;-65
2022/05/09 07:48:21;;;;;;;18.65;5.30;;;;;;;14.98;55.78;102766.97;5046580;28;20494;-68
2022/05/09 07:50:47;;;;;;;10.00;3.90;;;;;;;15.11;55.11;102762.28;5026207;28;20028;-66
2022/05/09 07:53:15;;;;;;;11.93;4.07;;;;;;;15.05;55.57;102768.59;5027722;28;20029;-65
2022/05/09 07:55:42;;;;;;;13.23;4.45;;;;;;;15.25;55.06;102764.63;5027185;28;20040;-66
2022/05/09 07:58:09;;;;;;;18.65;4.15;;;;;;;15.36;55.05;102761.72;5047016;28;20032;-66
2022/05/09 08:00:35;;;;;;;17.73;4.38;;;;;;;15.31;54.79;102766.25;5049869;28;20020;-65
2022/05/09 08:03:00;;;;;;;16.13;4.60;;;;;;;15.38;54.04;102760.78;5068085;28;20039;-67
2022/05/09 08:05:26;;;;;;;14.73;4.60;;;;;;;15.49;54.12;102765.84;5066702;28;20029;-67
2022/05/09 08:07:51;;;;;;;13.20;4.72;;;;;;;15.66;54.60;102765.41;5067615;28;20036;-66
2022/05/09 08:10:17;;;;;;;13.68;4.57;;;;;;;15.72;54.14;102753.78;5067425;28;20058;-67
2022/05/09 08:12:43;;;;;;;14.68;3.83;;;;;;;15.84;53.79;102762.34;5067256;28;20024;-66
2022/05/09 08:15:11;;;;;;;16.98;4.93;;;;;;;15.88;54.17;102756.91;5065683;28;20054;-66
2022/05/09 08:17:36;;;;;;;11.15;3.80;;;;;;;16.10;53.57;102758.19;5067611;28;20486;-66
2022/05/09 08:20:03;;;;;;;19.90;4.75;;;;;;;16.20;52.75;102764.09;5066091;28;20056;-64
2022/05/09 08:22:31;;;;;;;15.93;4.85;;;;;;;16.11;53.49;102760.78;5066563;28;20509;-67
2022/05/09 08:25:00;;;;;;;16.53;4.47;;;;;;;16.30;52.21;102760.28;5051430;28;20056;-67
2022/05/09 08:27:25;;;;;;;17.08;4.50;;;;;;;16.28;52.69;102762.09;5045480;28;20039;-68
2022/05/09 08:29:54;;;;;;;14.80;4.88;;;;;;;16.34;52.32;102756.63;5058887;28;20379;-67
2022/05/09 08:32:19;;;;;;;14.35;4.10;;;;;;;16.59;51.75;102761.25;5067133;28;20025;-68
2022/05/09 08:34:45;;;;;;;12.43;4.57;;;;;;;16.42;51.15;102749.31;5065515;28;20039;-67
2022/05/09 08:37:11;;;;;;;8.65;3.80;;;;;;;16.70;50.90;102749.44;5066493;28;20028;-64
2022/05/09 08:39:36;;;;;;;9.48;3.38;;;;;;;16.85;51.07;102761.38;5066645;28;20020;-66
2022/05/09 08:42:05;;;;;;;12.93;4.32;;;;;;;16.97;49.19;102754.81;5066283;28;20028;-68
2022/05/09 08:44:51;;;;;;;17.63;4.95;;;;;;;16.83;49.46;102749.94;5066238;28;20486;-67
2022/05/09 08:47:35;;;;;;;14.48;3.83;;;;;;;17.12;49.60;102743.72;5066731;28;20124;-67
2022/05/09 08:50:19;;;;;;;16.13;4.70;;;;;;;17.00;48.63;102754.72;5066370;28;20036;-67
2022/05/09 08:52:49;;;;;;;12.48;3.88;;;;;;;17.12;48.48;102748.19;5066756;28;20040;-68
2022/05/09 08:55:39;;;;;;;14.13;4.35;;;;;;;17.28;49.04;102748.59;5061724;28;20039;-67
2022/05/09 08:58:31;;;;;;;18.38;4.80;;;;;;;17.22;48.19;102741.63;5055263;28;20106;-66
2022/05/09 09:00:59;;;;;;;14.00;4.35;;;;;;;17.17;48.39;102735.59;5054926;28;20021;-67
2022/05/09 09:03:25;;;;;;;9.95;3.95;;;;;;;17.50;48.78;102739.88;5057657;28;20025;-66
2022/05/09 09:05:54;;;;;;;18.55;4.70;;;;;;;17.55;49.13;102736.13;5055419;28;20020;-65
2022/05/09 09:08:41;;;;;;;20.23;3.63;;;;;;;17.68;48.59;102736.63;5056183;28;20031;-68
2022/05/09 09:11:13;;;;;;;13.80;4.25;;;;;;;17.86;48.98;102738.69;5045960;28;20279;-67
2022/05/09 09:14:08;;;;;;;10.07;3.65;;;;;;;17.96;48.66;102734.78;5045606;28;20044;-66
2022/05/09 09:16:57;;;;;;;15.38;4.20;;;;;;;17.94;47.33;102726.81;5064692;28;20098;-67
2022/05/09 09:19:38;;;;;;;15.07;4.38;;;;;;;17.97;46.15;102720.50;5064085;28;20130;-66
2022/05/09 09:22:35;;;;;;;13.10;3.58;;;;;;;18.25;46.39;102721.34;5066211;28;20506;-68
2022/05/09 09:25:34;;;;;;;9.85;3.50;;;;;;;18.32;45.69;102714.88;5064393;28;20104;-65
2022/05/09 09:28:01;;;;;;;;;;;;;;;18.40;44.50;102719.91;5066454;28;20047;-68
2022/05/09 09:30:29;;;;;;;16.60;3.70;;;;;;;18.39;44.74;102713.69;5064845;28;19912;-67
2022/05/09 09:32:57;;;;;;;8.65;3.58;;;;;;;18.52;43.91;102710.59;5066275;28;20024;-66
2022/05/09 09:35:46;;;;;;;10.73;2.95;;;;;;;18.71;44.19;102705.41;5066302;28;20528;-67
2022/05/09 09:38:12;;;;;;;8.75;3.13;;;;;;;18.85;42.34;102699.53;5064674;28;20024;-66
2022/05/09 09:40:38;;;;;;;6.40;2.67;;;;;;;18.93;39.58;102705.44;5065844;28;20028;-68
2022/05/09 09:43:03;;;;;;;8.23;3.15;;;;;;;18.96;38.97;102696.41;5064318;28;20290;-67
2022/05/09 09:45:40;;;;;;;11.65;3.25;;;;;;;18.80;38.93;102704.16;5065354;28;20406;-67
2022/05/09 09:48:15;;;;;;;9.25;3.38;;;;;;;18.84;42.90;102696.91;5065826;28;20109;-68
2022/05/09 09:50:55;;;;;;;5.93;3.10;;;;;;;18.76;41.30;102700.75;5065038;28;20024;-67
2022/05/09 09:53:57;;;;;;;11.15;3.80;;;;;;;19.05;40.79;102693.38;5063458;28;20463;-69
2022/05/09 09:56:22;;;;;;;8.82;3.00;;;;;;;19.14;38.64;102683.28;5063342;28;20028;-66
2022/05/09 09:58:49;;;;;;;9.73;3.13;;;;;;;19.38;38.50;102678.72;5064812;28;20095;-68
2022/05/09 10:01:44;;;;;;;8.52;2.60;;;;;;;19.51;40.19;102683.53;5064577;28;20321;-68
2022/05/09 10:04:10;;;;;;;8.70;2.70;;;;;;;19.61;39.88;102684.00;5056645;28;20045;-68
2022/05/09 10:07:02;;;;;;;11.48;3.17;;;;;;;19.51;39.00;102686.22;5066085;28;20017;-67
2022/05/09 10:09:50;;;;;;;11.00;2.63;;;;;;;19.78;39.18;102685.97;5066405;28;20040;-67
2022/05/09 10:12:16;;;;;;;8.35;2.58;;;;;;;19.97;38.66;102674.44;5056065;28;20073;-69
2022/05/09 10:14:42;;;;;;;10.25;3.15;;;;;;;20.11;39.39;102677.41;5067836;28;20103;-68
2022/05/09 10:17:19;;;;;;;9.20;2.83;;;;;;;20.14;37.20;102677.25;5069462;28;20110;-67
2022/05/09 10:19:45;;;;;;;8.25;2.78;;;;;;;20.20;38.40;102676.13;5068960;28;20032;-68
2022/05/09 10:25:28;;;;;;;13.80;2.85;;;;;;;20.38;38.96;102674.38;5069660;28;20056;-69
2022/05/09 10:28:12;;;;;;;5.22;2.15;;;;;;;20.57;39.26;102673.50;5063292;28;20045;-67
2022/05/09 10:30:41;;;;;;;6.35;2.13;;;;;;;20.58;37.81;102662.72;5068606;28;20024;-68
2022/05/09 10:33:25;;;;;;;11.03;2.90;;;;;;;20.67;34.56;102658.75;5068350;28;20025;-68
2022/05/09 10:35:53;;;;;;;6.55;2.33;;;;;;;20.87;34.92;102654.22;5067412;28;20028;-68
2022/05/09 10:38:28;;;;;;;6.50;2.33;;;;;;;21.01;37.64;102655.41;5068235;28;20024;-70
2022/05/09 10:41:10;;;;;;;11.63;2.88;;;;;;;20.83;37.06;102653.50;5066896;28;20115;-68
2022/05/09 10:43:44;;;;;;;7.43;2.20;;;;;;;20.99;35.53;102657.28;5068230;28;20089;-68
2022/05/09 10:46:11;;;;;;;8.52;2.58;;;;;;;20.65;34.83;102651.72;5068047;28;20387;-68
2022/05/09 10:48:52;;;;;;;6.03;2.22;;;;;;;20.96;37.20;102642.22;5069223;28;20089;-67
2022/05/09 10:51:25;;;;;;;7.65;2.20;;;;;;;20.93;36.66;102640.56;5066005;28;20027;-69
2022/05/09 10:54:12;;;;;;;7.45;2.22;;;;;;;20.63;35.80;102640.22;5068915;28;20033;-68
2022/05/09 10:56:45;;;;;;;7.80;2.53;;;;;;;20.84;35.85;102639.16;5066842;28;20112;-68
2022/05/09 10:59:20;;;;;;;9.20;1.92;;;;;;;21.34;37.18;102636.72;5067563;28;20025;-68
2022/05/09 11:01:50;;;;;;;5.82;2.10;;;;;;;21.39;36.64;102638.28;5069125;28;20024;-69
2022/05/09 11:04:16;;;;;;;9.18;2.38;;;;;;;21.69;36.12;102640.31;5067055;28;20035;-69
2022/05/09 11:06:57;;;;;;;5.25;2.22;;;;;;;21.77;35.16;102638.16;5067661;28;20021;-69
2022/05/09 11:09:34;;;;;;;6.63;2.72;;;;;;;21.79;36.24;102638.06;5067016;28;20048;-69
2022/05/09 11:12:27;;;;;;;7.72;2.85;;;;;;;21.81;34.70;102634.34;5068742;28;20039;-68
2022/05/09 11:15:14;;;;;;;8.23;2.63;;;;;;;21.79;35.37;102635.38;5067758;28;20036;-69
2022/05/09 11:17:51;;;;;;;8.35;3.00;;;;;;;21.99;35.00;102628.94;5067499;28;20028;-69
2022/05/09 11:20:30;;;;;;;9.25;2.72;;;;;;;22.17;36.50;102620.81;5068406;28;20021;-68
2022/05/09 11:23:17;;;;;;;8.95;2.85;;;;;;;22.18;36.07;102623.41;5067299;28;20497;-68
2022/05/09 11:26:13;;;;;;;8.20;2.50;;;;;;;22.64;32.48;102619.13;5067675;28;20029;-69
2022/05/09 11:29:09;;;;;;;10.30;3.00;;;;;;;22.59;33.12;102623.88;5066719;28;20040;-68
2022/05/09 11:31:56;;;;;;;6.28;2.30;;;;;;;23.01;31.71;102625.97;5066545;28;20394;-67
2022/05/09 11:34:40;;;;;;;8.68;2.50;;;;;;;23.00;31.24;102618.88;5066676;28;20052;-67
2022/05/09 11:37:23;;;;;;;7.25;2.50;;;;;;;23.16;34.43;102621.53;5068575;28;20032;-69
2022/05/09 11:40:13;;;;;;;6.88;3.00;;;;;;;22.69;32.19;102614.34;5068480;28;20055;-68